sensor_id;sensor_type;location;lat;lon;timestamp;pressure;altitude;pressure_sealevel;temperature;humidity
84169;BME280;74295;50.146;8.794;2023-12-04T00:00:24;101008.38;;;-1.27;76.23
84169;BME280;74295;50.146;8.794;2023-12-04T00:10:26;100988.09;;;-1.28;76.11
84169;BME280;74295;50.146;8.794;2023-12-04T00:20:30;100959.09;;;-1.39;75.95
84169;BME280;74295;50.146;8.794;2023-12-04T00:30:33;100966.03;;;-1.46;76.43
84169;BME280;74295;50.146;8.794;2023-12-04T00:40:37;100949.03;;;-1.53;76.62
84169;BME280;74295;50.146;8.794;2023-12-04T00:50:40;100937.50;;;-1.61;76.27
84169;BME280;74295;50.146;8.794;2023-12-04T01:00:44;100938.69;;;-1.73;76.84
84169;BME280;74295;50.146;8.794;2023-12-04T01:10:46;100931.81;;;-1.84;76.55
84169;BME280;74295;50.146;8.794;2023-12-04T01:20:50;100912.81;;;-1.89;76.69
84169;BME280;74295;50.146;8.794;2023-12-04T01:30:53;100902.44;;;-2.00;77.20
84169;BME280;74295;50.146;8.794;2023-12-04T01:40:57;100888.25;;;-2.08;77.01
84169;BME280;74295;50.146;8.794;2023-12-04T01:51:00;100875.13;;;-2.10;77.20
84169;BME280;74295;50.146;8.794;2023-12-04T02:01:07;100879.53;;;-2.18;77.47
84169;BME280;74295;50.146;8.794;2023-12-04T02:11:09;100877.22;;;-2.13;77.02
84169;BME280;74295;50.146;8.794;2023-12-04T02:21:14;100886.28;;;-2.24;76.65
84169;BME280;74295;50.146;8.794;2023-12-04T02:31:18;100885.44;;;-2.24;75.88
84169;BME280;74295;50.146;8.794;2023-12-04T02:41:22;100867.75;;;-2.33;76.36
84169;BME280;74295;50.146;8.794;2023-12-04T02:51:26;100852.66;;;-2.33;76.19
84169;BME280;74295;50.146;8.794;2023-12-04T03:01:28;100832.72;;;-2.37;76.44
84169;BME280;74295;50.146;8.794;2023-12-04T03:11:32;100820.19;;;-2.27;75.71
84169;BME280;74295;50.146;8.794;2023-12-04T03:21:35;100803.50;;;-2.19;75.45
84169;BME280;74295;50.146;8.794;2023-12-04T03:31:39;100807.06;;;-2.11;75.08
84169;BME280;74295;50.146;8.794;2023-12-04T03:41:42;100777.13;;;-2.21;75.77
84169;BME280;74295;50.146;8.794;2023-12-04T03:51:46;100762.53;;;-2.17;75.27
84169;BME280;74295;50.146;8.794;2023-12-04T04:01:49;100750.38;;;-2.19;75.64
84169;BME280;74295;50.146;8.794;2023-12-04T04:11:53;100733.78;;;-2.21;75.48
84169;BME280;74295;50.146;8.794;2023-12-04T04:21:55;100737.59;;;-2.24;75.63
84169;BME280;74295;50.146;8.794;2023-12-04T04:31:59;100726.44;;;-2.27;75.77
84169;BME280;74295;50.146;8.794;2023-12-04T04:42:02;100740.25;;;-2.24;75.90
84169;BME280;74295;50.146;8.794;2023-12-04T04:52:06;100747.38;;;-2.24;75.85
84169;BME280;74295;50.146;8.794;2023-12-04T05:02:09;100735.09;;;-2.25;76.10
84169;BME280;74295;50.146;8.794;2023-12-04T05:12:13;100704.91;;;-2.24;76.22
84169;BME280;74295;50.146;8.794;2023-12-04T05:22:16;100696.25;;;-2.26;76.72
84169;BME280;74295;50.146;8.794;2023-12-04T05:32:20;100703.22;;;-2.51;77.64
84169;BME280;74295;50.146;8.794;2023-12-04T05:42:22;100698.59;;;-2.67;79.42
84169;BME280;74295;50.146;8.794;2023-12-04T05:52:26;100692.81;;;-2.62;79.60
84169;BME280;74295;50.146;8.794;2023-12-04T06:02:29;100680.78;;;-2.74;79.71
84169;BME280;74295;50.146;8.794;2023-12-04T06:12:33;100665.22;;;-2.69;79.66
84169;BME280;74295;50.146;8.794;2023-12-04T06:22:36;100650.75;;;-2.57;78.39
84169;BME280;74295;50.146;8.794;2023-12-04T06:32:41;100632.78;;;-2.63;78.00
84169;BME280;74295;50.146;8.794;2023-12-04T06:42:44;100646.28;;;-2.56;78.24
84169;BME280;74295;50.146;8.794;2023-12-04T06:52:48;100655.38;;;-2.59;78.65
84169;BME280;74295;50.146;8.794;2023-12-04T07:02:51;100657.13;;;-2.68;79.56
84169;BME280;74295;50.146;8.794;2023-12-04T07:12:55;100629.84;;;-2.60;79.14
84169;BME280;74295;50.146;8.794;2023-12-04T07:22:58;100608.66;;;-2.52;78.83
84169;BME280;74295;50.146;8.794;2023-12-04T07:33:02;100584.25;;;-2.30;77.73
84169;BME280;74295;50.146;8.794;2023-12-04T07:43:07;100547.25;;;-2.23;77.71
84169;BME280;74295;50.146;8.794;2023-12-04T07:53:11;100554.34;;;-1.98;76.16
84169;BME280;74295;50.146;8.794;2023-12-04T08:03:14;100565.00;;;-1.90;76.09
84169;BME280;74295;50.146;8.794;2023-12-04T08:13:18;100552.44;;;-1.64;74.75
84169;BME280;74295;50.146;8.794;2023-12-04T08:23:22;100552.97;;;-1.53;73.60
84169;BME280;74295;50.146;8.794;2023-12-04T08:33:26;100548.50;;;-1.36;72.39
84169;BME280;74295;50.146;8.794;2023-12-04T08:43:28;100527.06;;;-1.11;72.19
84169;BME280;74295;50.146;8.794;2023-12-04T08:53:32;100506.16;;;-1.30;73.06
84169;BME280;74295;50.146;8.794;2023-12-04T09:03:35;100491.31;;;-1.00;72.53
84169;BME280;74295;50.146;8.794;2023-12-04T09:13:39;100489.56;;;-0.61;69.95
84169;BME280;74295;50.146;8.794;2023-12-04T09:23:42;100481.19;;;-0.42;69.73
84169;BME280;74295;50.146;8.794;2023-12-04T09:33:52;100482.34;;;0.25;67.09
84169;BME280;74295;50.146;8.794;2023-12-04T09:43:54;100477.66;;;0.04;67.67
84169;BME280;74295;50.146;8.794;2023-12-04T09:54:02;100464.84;;;-0.01;68.21
84169;BME280;74295;50.146;8.794;2023-12-04T10:04:06;100460.22;;;-0.07;66.77
84169;BME280;74295;50.146;8.794;2023-12-04T10:14:15;100447.75;;;-0.14;66.10
84169;BME280;74295;50.146;8.794;2023-12-04T10:24:29;100436.72;;;-0.03;66.21
84169;BME280;74295;50.146;8.794;2023-12-04T10:34:33;100442.34;;;0.02;65.56
84169;BME280;74295;50.146;8.794;2023-12-04T10:44:40;100424.34;;;0.04;66.05
84169;BME280;74295;50.146;8.794;2023-12-04T10:54:44;100407.25;;;0.21;65.53
84169;BME280;74295;50.146;8.794;2023-12-04T11:04:49;100399.66;;;0.33;65.72
84169;BME280;74295;50.146;8.794;2023-12-04T11:14:56;100388.50;;;0.66;64.10
84169;BME280;74295;50.146;8.794;2023-12-04T11:25:02;100369.38;;;0.77;63.37
84169;BME280;74295;50.146;8.794;2023-12-04T11:35:12;100360.31;;;1.01;63.30
84169;BME280;74295;50.146;8.794;2023-12-04T11:45:19;100348.72;;;0.94;62.42
84169;BME280;74295;50.146;8.794;2023-12-04T11:55:26;100322.72;;;0.59;63.98
84169;BME280;74295;50.146;8.794;2023-12-04T12:05:30;100290.19;;;0.63;63.81
84169;BME280;74295;50.146;8.794;2023-12-04T12:15:35;100273.81;;;0.66;63.49
84169;BME280;74295;50.146;8.794;2023-12-04T12:25:38;100242.56;;;0.31;68.10
84169;BME280;74295;50.146;8.794;2023-12-04T12:35:42;100218.53;;;0.75;73.55
84169;BME280;74295;50.146;8.794;2023-12-04T12:45:59;100209.78;;;-0.07;77.43
84169;BME280;74295;50.146;8.794;2023-12-04T12:56:04;100195.84;;;-0.31;79.55
84169;BME280;74295;50.146;8.794;2023-12-04T13:06:08;100181.66;;;-0.09;79.73
84169;BME280;74295;50.146;8.794;2023-12-04T13:16:12;100154.16;;;-0.24;81.45
84169;BME280;74295;50.146;8.794;2023-12-04T13:26:15;100125.53;;;-0.22;81.82
84169;BME280;74295;50.146;8.794;2023-12-04T13:36:19;100103.09;;;-0.42;82.79
84169;BME280;74295;50.146;8.794;2023-12-04T13:46:22;100088.03;;;-0.35;82.59
84169;BME280;74295;50.146;8.794;2023-12-04T13:56:27;100079.78;;;-0.26;83.23
84169;BME280;74295;50.146;8.794;2023-12-04T14:06:43;100070.81;;;-0.25;84.04
84169;BME280;74295;50.146;8.794;2023-12-04T14:16:49;100051.50;;;-0.12;83.92
84169;BME280;74295;50.146;8.794;2023-12-04T14:26:52;100039.47;;;-0.08;84.72
84169;BME280;74295;50.146;8.794;2023-12-04T14:36:57;100018.63;;;-0.05;84.90
84169;BME280;74295;50.146;8.794;2023-12-04T14:47:00;100010.16;;;-0.08;84.57
84169;BME280;74295;50.146;8.794;2023-12-04T14:57:04;99998.03;;;0.04;86.15
84169;BME280;74295;50.146;8.794;2023-12-04T15:07:21;99985.56;;;0.26;84.36
84169;BME280;74295;50.146;8.794;2023-12-04T15:17:46;99974.13;;;0.11;84.63
84169;BME280;74295;50.146;8.794;2023-12-04T15:27:52;99955.78;;;0.01;84.65
84169;BME280;74295;50.146;8.794;2023-12-04T15:37:56;99945.03;;;-0.06;85.15
84169;BME280;74295;50.146;8.794;2023-12-04T15:47:58;99925.78;;;0.14;85.79
84169;BME280;74295;50.146;8.794;2023-12-04T15:58:03;99917.78;;;0.14;85.53
84169;BME280;74295;50.146;8.794;2023-12-04T16:08:05;99915.13;;;0.14;86.70
84169;BME280;74295;50.146;8.794;2023-12-04T16:18:09;99897.91;;;0.16;86.00
84169;BME280;74295;50.146;8.794;2023-12-04T16:28:14;99902.88;;;0.19;85.78
84169;BME280;74295;50.146;8.794;2023-12-04T16:38:19;99882.75;;;0.17;85.92
84169;BME280;74295;50.146;8.794;2023-12-04T16:48:22;99871.34;;;0.23;87.14
84169;BME280;74295;50.146;8.794;2023-12-04T16:58:26;99861.09;;;0.26;87.00
84169;BME280;74295;50.146;8.794;2023-12-04T17:08:29;99843.97;;;0.35;88.19
84169;BME280;74295;50.146;8.794;2023-12-04T17:18:33;99843.59;;;0.38;87.88
84169;BME280;74295;50.146;8.794;2023-12-04T17:28:37;99835.03;;;0.43;87.41
84169;BME280;74295;50.146;8.794;2023-12-04T17:38:41;99822.75;;;0.48;87.85
84169;BME280;74295;50.146;8.794;2023-12-04T17:48:45;99811.91;;;0.50;87.13
84169;BME280;74295;50.146;8.794;2023-12-04T17:58:50;99797.19;;;0.60;87.08
84169;BME280;74295;50.146;8.794;2023-12-04T18:08:53;99795.25;;;0.48;87.07
84169;BME280;74295;50.146;8.794;2023-12-04T18:18:58;99784.41;;;0.49;86.67
84169;BME280;74295;50.146;8.794;2023-12-04T18:29:01;99777.81;;;0.45;87.22
84169;BME280;74295;50.146;8.794;2023-12-04T18:39:05;99751.19;;;0.52;86.02
84169;BME280;74295;50.146;8.794;2023-12-04T18:49:10;99738.13;;;0.63;86.73
84169;BME280;74295;50.146;8.794;2023-12-04T18:59:15;99729.72;;;0.66;86.37
84169;BME280;74295;50.146;8.794;2023-12-04T19:09:17;99722.59;;;0.73;85.97
84169;BME280;74295;50.146;8.794;2023-12-04T19:19:21;99707.63;;;0.79;86.07
84169;BME280;74295;50.146;8.794;2023-12-04T19:29:24;99697.25;;;1.03;86.74
84169;BME280;74295;50.146;8.794;2023-12-04T19:39:31;99691.72;;;1.05;84.66
84169;BME280;74295;50.146;8.794;2023-12-04T19:49:34;99685.16;;;1.07;84.99
84169;BME280;74295;50.146;8.794;2023-12-04T19:59:38;99671.81;;;1.01;86.02
84169;BME280;74295;50.146;8.794;2023-12-04T20:09:41;99657.94;;;1.51;85.92
84169;BME280;74295;50.146;8.794;2023-12-04T20:19:45;99663.88;;;1.66;84.27
84169;BME280;74295;50.146;8.794;2023-12-04T20:29:49;99654.41;;;1.83;82.50
84169;BME280;74295;50.146;8.794;2023-12-04T20:39:52;99660.19;;;1.41;82.37
84169;BME280;74295;50.146;8.794;2023-12-04T20:49:55;99646.78;;;1.15;83.61
84169;BME280;74295;50.146;8.794;2023-12-04T20:59:59;99627.03;;;1.03;84.00
84169;BME280;74295;50.146;8.794;2023-12-04T21:10:02;99619.66;;;0.98;83.82
84169;BME280;74295;50.146;8.794;2023-12-04T21:20:09;99612.47;;;0.99;84.16
84169;BME280;74295;50.146;8.794;2023-12-04T21:30:12;99607.34;;;0.97;84.68
84169;BME280;74295;50.146;8.794;2023-12-04T21:40:18;99589.72;;;1.09;85.73
84169;BME280;74295;50.146;8.794;2023-12-04T21:50:21;99589.28;;;0.99;85.76
84169;BME280;74295;50.146;8.794;2023-12-04T22:00:25;99565.88;;;0.88;86.24
84169;BME280;74295;50.146;8.794;2023-12-04T22:10:29;99563.41;;;0.93;86.97
84169;BME280;74295;50.146;8.794;2023-12-04T22:20:33;99563.22;;;0.95;87.34
84169;BME280;74295;50.146;8.794;2023-12-04T22:30:36;99541.66;;;0.83;86.06
84169;BME280;74295;50.146;8.794;2023-12-04T22:40:41;99559.72;;;0.94;86.82
84169;BME280;74295;50.146;8.794;2023-12-04T22:50:44;99561.56;;;0.94;86.75
84169;BME280;74295;50.146;8.794;2023-12-04T23:00:48;99550.47;;;0.90;87.35
84169;BME280;74295;50.146;8.794;2023-12-04T23:10:50;99547.19;;;0.95;87.33
84169;BME280;74295;50.146;8.794;2023-12-04T23:20:54;99538.38;;;0.94;87.75
84169;BME280;74295;50.146;8.794;2023-12-04T23:30:57;99524.22;;;0.94;88.29
84169;BME280;74295;50.146;8.794;2023-12-04T23:41:01;99514.78;;;1.04;87.81
84169;BME280;74295;50.146;8.794;2023-12-04T23:51:04;99507.59;;;0.98;88.20
